sensor_id;sensor_type;location;lat;lon;timestamp;pressure;altitude;pressure_sealevel;temperature;humidity
8061;BME280;4073;42.626;25.386;2023-01-31T00:01:10;96621.44;;;0.32;100.00
8061;BME280;4073;42.626;25.386;2023-01-31T00:03:37;96603.19;;;0.19;100.00
8061;BME280;4073;42.626;25.386;2023-01-31T00:08:40;96591.72;;;0.32;100.00
8061;BME280;4073;42.626;25.386;2023-01-31T00:11:05;96571.66;;;0.19;100.00
8061;BME280;4073;42.626;25.386;2023-01-31T00:13:31;96591.94;;;0.30;100.00
8061;BME280;4073;42.626;25.386;2023-01-31T00:15:57;96570.06;;;0.18;100.00
8061;BME280;4073;42.626;25.386;2023-01-31T00:18:23;96583.69;;;0.27;100.00
8061;BME280;4073;42.626;25.386;2023-01-31T00:20:48;96579.47;;;0.26;100.00
8061;BME280;4073;42.626;25.386;2023-01-31T00:23:14;96583.31;;;0.23;100.00
8061;BME280;4073;42.626;25.386;2023-01-31T00:25:39;96579.09;;;0.22;100.00
8061;BME280;4073;42.626;25.386;2023-01-31T00:28:05;96578.00;;;0.30;100.00
8061;BME280;4073;42.626;25.386;2023-01-31T00:30:30;96566.47;;;0.31;100.00
8061;BME280;4073;42.626;25.386;2023-01-31T00:32:56;96569.31;;;0.29;100.00
8061;BME280;4073;42.626;25.386;2023-01-31T00:35:21;96572.53;;;0.31;100.00
8061;BME280;4073;42.626;25.386;2023-01-31T00:37:47;96559.78;;;0.17;100.00
8061;BME280;4073;42.626;25.386;2023-01-31T00:40:12;96573.97;;;0.27;100.00
8061;BME280;4073;42.626;25.386;2023-01-31T00:42:37;96572.88;;;0.35;100.00
8061;BME280;4073;42.626;25.386;2023-01-31T00:45:03;96591.44;;;0.40;100.00
8061;BME280;4073;42.626;25.386;2023-01-31T00:47:29;96584.19;;;0.35;100.00
8061;BME280;4073;42.626;25.386;2023-01-31T00:49:55;96581.84;;;0.45;100.00
8061;BME280;4073;42.626;25.386;2023-01-31T00:52:20;96579.28;;;0.39;100.00
8061;BME280;4073;42.626;25.386;2023-01-31T00:54:45;96591.72;;;0.32;100.00
8061;BME280;4073;42.626;25.386;2023-01-31T00:57:11;96574.66;;;0.23;100.00
8061;BME280;4073;42.626;25.386;2023-01-31T00:59:37;96588.59;;;0.23;100.00
8061;BME280;4073;42.626;25.386;2023-01-31T01:02:02;96585.97;;;0.23;100.00
8061;BME280;4073;42.626;25.386;2023-01-31T01:04:27;96577.06;;;0.24;100.00
8061;BME280;4073;42.626;25.386;2023-01-31T01:06:53;96577.06;;;0.24;100.00
8061;BME280;4073;42.626;25.386;2023-01-31T01:09:18;96580.63;;;0.30;100.00
8061;BME280;4073;42.626;25.386;2023-01-31T01:11:44;96568.06;;;0.32;100.00
8061;BME280;4073;42.626;25.386;2023-01-31T01:14:09;96562.69;;;0.27;100.00
8061;BME280;4073;42.626;25.386;2023-01-31T01:16:37;96569.75;;;0.26;100.00
8061;BME280;4073;42.626;25.386;2023-01-31T01:19:04;96568.06;;;0.32;100.00
8061;BME280;4073;42.626;25.386;2023-01-31T01:21:31;96575.50;;;0.35;100.00
8061;BME280;4073;42.626;25.386;2023-01-31T01:24:04;96577.91;;;0.36;100.00
8061;BME280;4073;42.626;25.386;2023-01-31T01:26:31;96575.44;;;0.41;100.00
8061;BME280;4073;42.626;25.386;2023-01-31T01:28:58;96570.19;;;0.41;100.00
8061;BME280;4073;42.626;25.386;2023-01-31T01:31:25;96581.34;;;0.37;100.00
8061;BME280;4073;42.626;25.386;2023-01-31T01:34:03;96586.84;;;0.35;100.00
8061;BME280;4073;42.626;25.386;2023-01-31T01:36:30;96584.75;;;0.37;100.00
8061;BME280;4073;42.626;25.386;2023-01-31T01:38:56;96590.63;;;0.39;100.00
8061;BME280;4073;42.626;25.386;2023-01-31T01:41:21;96575.88;;;0.38;100.00
8061;BME280;4073;42.626;25.386;2023-01-31T01:43:50;96579.50;;;0.37;100.00
8061;BME280;4073;42.626;25.386;2023-01-31T01:46:25;96578.13;;;0.35;100.00
8061;BME280;4073;42.626;25.386;2023-01-31T01:48:56;96583.53;;;0.40;100.00
8061;BME280;4073;42.626;25.386;2023-01-31T01:51:24;96583.97;;;0.37;100.00
8061;BME280;4073;42.626;25.386;2023-01-31T01:53:54;96570.03;;;0.36;100.00
8061;BME280;4073;42.626;25.386;2023-01-31T01:56:27;96572.81;;;0.41;100.00
8061;BME280;4073;42.626;25.386;2023-01-31T01:59:28;96572.34;;;0.44;100.00
8061;BME280;4073;42.626;25.386;2023-01-31T02:01:55;96581.84;;;0.45;100.00
8061;BME280;4073;42.626;25.386;2023-01-31T02:04:25;96571.78;;;0.42;100.00
8061;BME280;4073;42.626;25.386;2023-01-31T02:06:52;96570.84;;;0.37;100.00
8061;BME280;4073;42.626;25.386;2023-01-31T02:11:52;96555.84;;;0.37;100.00
8061;BME280;4073;42.626;25.386;2023-01-31T02:14:18;96559.66;;;0.41;100.00
8061;BME280;4073;42.626;25.386;2023-01-31T02:16:44;96550.56;;;0.55;100.00
8061;BME280;4073;42.626;25.386;2023-01-31T02:28:38;96533.13;;;0.84;100.00
8061;BME280;4073;42.626;25.386;2023-01-31T02:43:40;96532.78;;;0.80;100.00
8061;BME280;4073;42.626;25.386;2023-01-31T02:49:16;96523.16;;;0.86;100.00
8061;BME280;4073;42.626;25.386;2023-01-31T02:52:05;96523.09;;;0.92;100.00
8061;BME280;4073;42.626;25.386;2023-01-31T02:54:44;96523.41;;;0.96;100.00
8061;BME280;4073;42.626;25.386;2023-01-31T02:57:31;96511.16;;;0.90;100.00
8061;BME280;4073;42.626;25.386;2023-01-31T02:59:58;96522.28;;;0.92;100.00
8061;BME280;4073;42.626;25.386;2023-01-31T03:02:24;96520.56;;;0.97;100.00
8061;BME280;4073;42.626;25.386;2023-01-31T03:04:49;96524.09;;;0.91;100.00
8061;BME280;4073;42.626;25.386;2023-01-31T03:07:19;96529.94;;;0.93;100.00
8061;BME280;4073;42.626;25.386;2023-01-31T03:12:52;96531.69;;;1.11;100.00
8061;BME280;4073;42.626;25.386;2023-01-31T03:16:27;96521.84;;;1.18;100.00
8061;BME280;4073;42.626;25.386;2023-01-31T03:19:20;96513.59;;;1.26;100.00
8061;BME280;4073;42.626;25.386;2023-01-31T03:22:04;96517.50;;;1.23;100.00
8061;BME280;4073;42.626;25.386;2023-01-31T03:24:32;96506.06;;;1.29;100.00
8061;BME280;4073;42.626;25.386;2023-01-31T03:26:59;96505.25;;;1.29;100.00
8061;BME280;4073;42.626;25.386;2023-01-31T03:29:28;96501.72;;;1.35;99.41
8061;BME280;4073;42.626;25.386;2023-01-31T03:32:05;96522.63;;;1.64;88.89
8061;BME280;4073;42.626;25.386;2023-01-31T03:34:33;96522.84;;;1.86;82.12
8061;BME280;4073;42.626;25.386;2023-01-31T03:37:05;96525.50;;;2.14;78.28
8061;BME280;4073;42.626;25.386;2023-01-31T03:39:42;96525.09;;;2.33;75.02
8061;BME280;4073;42.626;25.386;2023-01-31T03:45:03;96542.00;;;2.77;69.33
8061;BME280;4073;42.626;25.386;2023-01-31T03:47:40;96535.28;;;2.86;68.09
8061;BME280;4073;42.626;25.386;2023-01-31T03:53:15;96531.34;;;2.89;69.57
8061;BME280;4073;42.626;25.386;2023-01-31T03:56:00;96536.50;;;2.95;69.81
8061;BME280;4073;42.626;25.386;2023-01-31T03:58:33;96542.41;;;3.02;70.38
8061;BME280;4073;42.626;25.386;2023-01-31T04:01:04;96546.88;;;3.02;71.39
8061;BME280;4073;42.626;25.386;2023-01-31T04:03:38;96534.56;;;3.07;71.35
8061;BME280;4073;42.626;25.386;2023-01-31T04:06:05;96534.72;;;3.17;72.38
8061;BME280;4073;42.626;25.386;2023-01-31T04:08:32;96542.75;;;3.22;71.40
8061;BME280;4073;42.626;25.386;2023-01-31T04:10:59;96519.59;;;3.29;72.67
8061;BME280;4073;42.626;25.386;2023-01-31T04:13:27;96521.78;;;3.32;73.86
8061;BME280;4073;42.626;25.386;2023-01-31T04:15:53;96518.09;;;3.33;73.79
8061;BME280;4073;42.626;25.386;2023-01-31T04:18:18;96514.38;;;3.34;73.34
8061;BME280;4073;42.626;25.386;2023-01-31T04:20:44;96522.88;;;3.36;72.89
8061;BME280;4073;42.626;25.386;2023-01-31T04:23:09;96517.03;;;3.34;73.40
8061;BME280;4073;42.626;25.386;2023-01-31T04:25:34;96522.78;;;3.31;75.00
8061;BME280;4073;42.626;25.386;2023-01-31T04:28:00;96518.31;;;3.32;75.34
8061;BME280;4073;42.626;25.386;2023-01-31T04:30:25;96518.66;;;3.35;75.54
8061;BME280;4073;42.626;25.386;2023-01-31T04:32:51;96533.75;;;3.40;75.83
8061;BME280;4073;42.626;25.386;2023-01-31T04:35:16;96534.31;;;3.42;76.28
8061;BME280;4073;42.626;25.386;2023-01-31T04:37:42;96532.72;;;3.41;76.88
8061;BME280;4073;42.626;25.386;2023-01-31T04:40:07;96541.44;;;3.41;76.16
8061;BME280;4073;42.626;25.386;2023-01-31T04:42:33;96537.06;;;3.47;76.24
8061;BME280;4073;42.626;25.386;2023-01-31T04:44:58;96554.97;;;3.45;76.46
8061;BME280;4073;42.626;25.386;2023-01-31T04:47:24;96543.59;;;3.44;75.86
8061;BME280;4073;42.626;25.386;2023-01-31T04:49:49;96554.97;;;3.45;76.54
8061;BME280;4073;42.626;25.386;2023-01-31T04:52:15;96553.16;;;3.45;75.71
8061;BME280;4073;42.626;25.386;2023-01-31T04:54:40;96561.78;;;3.41;76.39
8061;BME280;4073;42.626;25.386;2023-01-31T04:57:06;96561.69;;;3.36;77.08
8061;BME280;4073;42.626;25.386;2023-01-31T04:59:32;96569.47;;;3.42;77.10
8061;BME280;4073;42.626;25.386;2023-01-31T05:01:57;96569.97;;;3.39;78.30
8061;BME280;4073;42.626;25.386;2023-01-31T05:04:23;96567.47;;;3.33;78.87
8061;BME280;4073;42.626;25.386;2023-01-31T05:06:49;96557.13;;;3.31;78.58
8061;BME280;4073;42.626;25.386;2023-01-31T05:09:15;96562.59;;;3.25;78.99
8061;BME280;4073;42.626;25.386;2023-01-31T05:11:42;96557.72;;;3.33;78.96
8061;BME280;4073;42.626;25.386;2023-01-31T05:14:07;96555.25;;;3.27;80.30
8061;BME280;4073;42.626;25.386;2023-01-31T05:16:33;96537.59;;;3.16;81.03
8061;BME280;4073;42.626;25.386;2023-01-31T05:18:58;96561.31;;;3.27;81.94
8061;BME280;4073;42.626;25.386;2023-01-31T05:21:24;96553.56;;;3.21;83.53
8061;BME280;4073;42.626;25.386;2023-01-31T05:23:49;96548.50;;;3.19;85.49
8061;BME280;4073;42.626;25.386;2023-01-31T05:26:14;96538.19;;;3.18;83.89
8061;BME280;4073;42.626;25.386;2023-01-31T05:28:40;96547.94;;;3.17;83.44
8061;BME280;4073;42.626;25.386;2023-01-31T05:31:07;96559.84;;;3.03;84.90
8061;BME280;4073;42.626;25.386;2023-01-31T05:33:33;96577.16;;;3.11;84.35
8061;BME280;4073;42.626;25.386;2023-01-31T05:35:59;96580.03;;;3.09;84.12
8061;BME280;4073;42.626;25.386;2023-01-31T05:38:25;96582.44;;;3.11;84.43
8061;BME280;4073;42.626;25.386;2023-01-31T05:40:51;96578.97;;;3.10;84.60
8061;BME280;4073;42.626;25.386;2023-01-31T05:43:17;96579.44;;;3.07;86.34
8061;BME280;4073;42.626;25.386;2023-01-31T05:45:43;96592.19;;;3.10;85.60
8061;BME280;4073;42.626;25.386;2023-01-31T05:48:09;96572.59;;;3.06;85.68
8061;BME280;4073;42.626;25.386;2023-01-31T05:50:34;96585.25;;;3.04;84.86
8061;BME280;4073;42.626;25.386;2023-01-31T05:53:00;96597.34;;;3.17;83.50
8061;BME280;4073;42.626;25.386;2023-01-31T05:55:27;96591.41;;;3.26;83.46
8061;BME280;4073;42.626;25.386;2023-01-31T05:57:53;96602.78;;;3.27;83.02
8061;BME280;4073;42.626;25.386;2023-01-31T06:00:19;96608.06;;;3.27;82.92
8061;BME280;4073;42.626;25.386;2023-01-31T06:02:45;96570.75;;;3.23;83.63
8061;BME280;4073;42.626;25.386;2023-01-31T06:05:10;96586.28;;;3.20;84.25
8061;BME280;4073;42.626;25.386;2023-01-31T06:07:37;96595.81;;;3.21;83.60
8061;BME280;4073;42.626;25.386;2023-01-31T06:10:04;96598.84;;;3.13;85.19
8061;BME280;4073;42.626;25.386;2023-01-31T06:12:29;96594.47;;;3.18;83.22
8061;BME280;4073;42.626;25.386;2023-01-31T06:14:55;96598.34;;;3.16;83.97
8061;BME280;4073;42.626;25.386;2023-01-31T06:17:21;96596.03;;;3.19;83.89
8061;BME280;4073;42.626;25.386;2023-01-31T06:19:48;96605.50;;;3.15;83.97
8061;BME280;4073;42.626;25.386;2023-01-31T06:22:14;96585.16;;;3.16;84.63
8061;BME280;4073;42.626;25.386;2023-01-31T06:24:39;96618.78;;;3.20;84.16
8061;BME280;4073;42.626;25.386;2023-01-31T06:27:05;96615.13;;;3.21;83.86
8061;BME280;4073;42.626;25.386;2023-01-31T06:29:30;96623.09;;;3.26;81.80
8061;BME280;4073;42.626;25.386;2023-01-31T06:31:55;96626.41;;;3.33;82.06
8061;BME280;4073;42.626;25.386;2023-01-31T06:34:21;96622.47;;;3.36;81.53
8061;BME280;4073;42.626;25.386;2023-01-31T06:36:46;96622.81;;;3.39;82.18
8061;BME280;4073;42.626;25.386;2023-01-31T06:39:12;96614.41;;;3.42;80.95
8061;BME280;4073;42.626;25.386;2023-01-31T06:41:38;96640.00;;;3.42;81.06
8061;BME280;4073;42.626;25.386;2023-01-31T06:44:03;96636.56;;;3.41;81.57
8061;BME280;4073;42.626;25.386;2023-01-31T06:46:29;96648.28;;;3.45;80.44
8061;BME280;4073;42.626;25.386;2023-01-31T06:48:54;96637.38;;;3.42;80.70
8061;BME280;4073;42.626;25.386;2023-01-31T06:51:20;96653.63;;;3.50;80.75
8061;BME280;4073;42.626;25.386;2023-01-31T06:53:45;96639.59;;;3.50;80.91
8061;BME280;4073;42.626;25.386;2023-01-31T06:56:11;96640.41;;;3.50;80.30
8061;BME280;4073;42.626;25.386;2023-01-31T06:58:36;96640.00;;;3.58;80.16
8061;BME280;4073;42.626;25.386;2023-01-31T07:01:06;96631.06;;;3.59;81.00
8061;BME280;4073;42.626;25.386;2023-01-31T07:03:32;96636.66;;;3.63;80.04
8061;BME280;4073;42.626;25.386;2023-01-31T07:05:58;96642.09;;;3.56;79.85
8061;BME280;4073;42.626;25.386;2023-01-31T07:08:23;96656.69;;;3.59;80.20
8061;BME280;4073;42.626;25.386;2023-01-31T07:10:49;96654.28;;;3.57;79.61
8061;BME280;4073;42.626;25.386;2023-01-31T07:13:14;96627.84;;;3.57;79.53
8061;BME280;4073;42.626;25.386;2023-01-31T07:15:41;96652.75;;;3.61;79.82
8061;BME280;4073;42.626;25.386;2023-01-31T07:18:06;96669.09;;;3.58;80.25
8061;BME280;4073;42.626;25.386;2023-01-31T07:20:32;96663.78;;;3.58;80.58
8061;BME280;4073;42.626;25.386;2023-01-31T07:22:58;96661.16;;;3.58;81.15
8061;BME280;4073;42.626;25.386;2023-01-31T07:25:25;96669.59;;;3.55;82.13
8061;BME280;4073;42.626;25.386;2023-01-31T07:27:50;96666.84;;;3.50;82.35
8061;BME280;4073;42.626;25.386;2023-01-31T07:30:16;96660.03;;;3.54;80.54
8061;BME280;4073;42.626;25.386;2023-01-31T07:32:41;96656.59;;;3.54;80.24
8061;BME280;4073;42.626;25.386;2023-01-31T07:35:07;96667.25;;;3.59;79.53
8061;BME280;4073;42.626;25.386;2023-01-31T07:37:33;96669.72;;;3.65;78.94
8061;BME280;4073;42.626;25.386;2023-01-31T07:39:58;96640.16;;;3.68;78.94
8061;BME280;4073;42.626;25.386;2023-01-31T07:42:24;96663.47;;;3.71;77.31
8061;BME280;4073;42.626;25.386;2023-01-31T07:44:49;96627.03;;;3.73;77.89
8061;BME280;4073;42.626;25.386;2023-01-31T07:47:15;96663.81;;;3.75;75.79
8061;BME280;4073;42.626;25.386;2023-01-31T07:49:40;96667.59;;;3.79;77.18
8061;BME280;4073;42.626;25.386;2023-01-31T07:52:06;96641.69;;;3.64;77.23
8061;BME280;4073;42.626;25.386;2023-01-31T07:54:31;96673.59;;;3.74;77.85
8061;BME280;4073;42.626;25.386;2023-01-31T07:56:56;96686.03;;;3.74;77.76
8061;BME280;4073;42.626;25.386;2023-01-31T07:59:22;96701.59;;;3.75;78.41
8061;BME280;4073;42.626;25.386;2023-01-31T08:01:47;96700.84;;;3.75;78.65
8061;BME280;4073;42.626;25.386;2023-01-31T08:04:33;96715.66;;;3.76;79.61
8061;BME280;4073;42.626;25.386;2023-01-31T08:06:58;96706.91;;;3.75;79.85
8061;BME280;4073;42.626;25.386;2023-01-31T08:09:27;96711.94;;;3.77;80.00
8061;BME280;4073;42.626;25.386;2023-01-31T08:11:52;96720.47;;;3.79;80.11
8061;BME280;4073;42.626;25.386;2023-01-31T08:14:18;96732.09;;;3.78;81.23
8061;BME280;4073;42.626;25.386;2023-01-31T08:16:47;96727.50;;;3.90;81.87
8061;BME280;4073;42.626;25.386;2023-01-31T08:19:13;96722.44;;;3.88;82.48
8061;BME280;4073;42.626;25.386;2023-01-31T08:21:38;96715.56;;;3.87;82.90
8061;BME280;4073;42.626;25.386;2023-01-31T08:24:04;96730.97;;;3.90;83.81
8061;BME280;4073;42.626;25.386;2023-01-31T08:26:29;96719.56;;;3.90;83.97
8061;BME280;4073;42.626;25.386;2023-01-31T08:28:55;96719.56;;;3.90;81.95
8061;BME280;4073;42.626;25.386;2023-01-31T08:31:24;96729.91;;;3.91;80.01
8061;BME280;4073;42.626;25.386;2023-01-31T08:33:50;96721.81;;;3.81;80.20
8061;BME280;4073;42.626;25.386;2023-01-31T08:36:28;96747.13;;;3.77;80.78
8061;BME280;4073;42.626;25.386;2023-01-31T08:38:58;96747.59;;;3.74;79.13
8061;BME280;4073;42.626;25.386;2023-01-31T08:41:25;96748.91;;;3.72;79.65
8061;BME280;4073;42.626;25.386;2023-01-31T08:43:51;96754.50;;;3.75;80.13
8061;BME280;4073;42.626;25.386;2023-01-31T08:46:17;96782.78;;;3.75;81.21
8061;BME280;4073;42.626;25.386;2023-01-31T08:48:43;96762.59;;;3.69;80.60
8061;BME280;4073;42.626;25.386;2023-01-31T08:51:11;96781.25;;;3.62;81.26
8061;BME280;4073;42.626;25.386;2023-01-31T08:53:38;96766.75;;;3.65;81.64
8061;BME280;4073;42.626;25.386;2023-01-31T08:56:05;96761.00;;;3.68;80.88
8061;BME280;4073;42.626;25.386;2023-01-31T08:58:34;96774.47;;;3.83;80.67
8061;BME280;4073;42.626;25.386;2023-01-31T09:01:04;96763.50;;;3.91;79.91
8061;BME280;4073;42.626;25.386;2023-01-31T09:03:30;96780.97;;;3.92;79.10
8061;BME280;4073;42.626;25.386;2023-01-31T09:06:00;96781.22;;;3.90;79.78
8061;BME280;4073;42.626;25.386;2023-01-31T09:08:26;96788.81;;;3.87;79.96
8061;BME280;4073;42.626;25.386;2023-01-31T09:10:53;96781.03;;;3.80;78.84
8061;BME280;4073;42.626;25.386;2023-01-31T09:13:19;96790.94;;;3.73;79.84
8061;BME280;4073;42.626;25.386;2023-01-31T09:15:45;96796.47;;;3.72;80.38
8061;BME280;4073;42.626;25.386;2023-01-31T09:18:11;96792.13;;;3.66;80.35
8061;BME280;4073;42.626;25.386;2023-01-31T09:20:36;96789.34;;;3.72;81.05
8061;BME280;4073;42.626;25.386;2023-01-31T09:23:02;96789.91;;;3.74;80.58
8061;BME280;4073;42.626;25.386;2023-01-31T09:25:28;96769.56;;;3.75;81.03
8061;BME280;4073;42.626;25.386;2023-01-31T09:27:53;96786.16;;;3.87;81.69
8061;BME280;4073;42.626;25.386;2023-01-31T09:30:19;96768.78;;;3.91;79.41
8061;BME280;4073;42.626;25.386;2023-01-31T09:32:45;96762.53;;;3.97;79.15
8061;BME280;4073;42.626;25.386;2023-01-31T09:35:11;96753.75;;;4.08;78.88
8061;BME280;4073;42.626;25.386;2023-01-31T09:37:37;96761.25;;;4.16;78.88
8061;BME280;4073;42.626;25.386;2023-01-31T09:40:04;96765.66;;;4.43;79.03
8061;BME280;4073;42.626;25.386;2023-01-31T09:42:34;96761.25;;;4.87;74.76
8061;BME280;4073;42.626;25.386;2023-01-31T09:45:05;96732.81;;;5.47;73.15
8061;BME280;4073;42.626;25.386;2023-01-31T09:47:45;96748.16;;;5.72;71.24
8061;BME280;4073;42.626;25.386;2023-01-31T09:52:46;96757.25;;;5.54;71.84
8061;BME280;4073;42.626;25.386;2023-01-31T09:55:25;96763.19;;;5.39;72.55
8061;BME280;4073;42.626;25.386;2023-01-31T10:00:42;96756.06;;;4.97;74.99
8061;BME280;4073;42.626;25.386;2023-01-31T10:05:39;96754.69;;;4.73;75.38
8061;BME280;4073;42.626;25.386;2023-01-31T10:10:47;96755.34;;;4.63;76.40
8061;BME280;4073;42.626;25.386;2023-01-31T10:13:24;96759.38;;;4.66;76.37
8061;BME280;4073;42.626;25.386;2023-01-31T10:16:00;96759.28;;;4.61;76.15
8061;BME280;4073;42.626;25.386;2023-01-31T10:18:31;96741.22;;;4.58;75.69
8061;BME280;4073;42.626;25.386;2023-01-31T10:21:25;96740.75;;;4.61;75.27
8061;BME280;4073;42.626;25.386;2023-01-31T10:23:59;96734.78;;;4.49;75.28
8061;BME280;4073;42.626;25.386;2023-01-31T10:26:32;96748.06;;;4.54;74.66
8061;BME280;4073;42.626;25.386;2023-01-31T10:31:39;96729.38;;;4.44;75.51
8061;BME280;4073;42.626;25.386;2023-01-31T10:34:13;96738.44;;;4.48;76.12
8061;BME280;4073;42.626;25.386;2023-01-31T10:39:16;96707.94;;;4.40;74.13
8061;BME280;4073;42.626;25.386;2023-01-31T10:44:26;96734.78;;;4.49;74.06
8061;BME280;4073;42.626;25.386;2023-01-31T10:46:57;96736.84;;;4.47;74.30
8061;BME280;4073;42.626;25.386;2023-01-31T10:49:25;96723.63;;;4.47;75.71
8061;BME280;4073;42.626;25.386;2023-01-31T10:54:58;96725.22;;;4.48;76.38
8061;BME280;4073;42.626;25.386;2023-01-31T10:57:27;96720.53;;;4.33;75.15
8061;BME280;4073;42.626;25.386;2023-01-31T10:59:53;96735.84;;;4.31;76.17
8061;BME280;4073;42.626;25.386;2023-01-31T11:02:22;96730.34;;;4.38;75.61
8061;BME280;4073;42.626;25.386;2023-01-31T11:04:50;96724.03;;;4.39;75.15
8061;BME280;4073;42.626;25.386;2023-01-31T11:07:16;96729.00;;;4.35;75.95
8061;BME280;4073;42.626;25.386;2023-01-31T11:09:47;96732.03;;;4.44;75.86
8061;BME280;4073;42.626;25.386;2023-01-31T11:12:13;96739.44;;;4.42;75.72
8061;BME280;4073;42.626;25.386;2023-01-31T11:14:38;96738.63;;;4.41;79.63
8061;BME280;4073;42.626;25.386;2023-01-31T11:17:11;96733.50;;;4.18;83.85
8061;BME280;4073;42.626;25.386;2023-01-31T11:19:50;96739.38;;;4.04;86.12
8061;BME280;4073;42.626;25.386;2023-01-31T11:22:29;96736.47;;;4.05;88.15
8061;BME280;4073;42.626;25.386;2023-01-31T11:24:57;96727.28;;;4.08;90.20
8061;BME280;4073;42.626;25.386;2023-01-31T11:27:42;96725.66;;;4.07;91.14
8061;BME280;4073;42.626;25.386;2023-01-31T11:30:24;96733.19;;;3.98;91.02
8061;BME280;4073;42.626;25.386;2023-01-31T11:32:52;96725.25;;;3.98;91.76
8061;BME280;4073;42.626;25.386;2023-01-31T11:42:53;96727.28;;;4.08;91.17
8061;BME280;4073;42.626;25.386;2023-01-31T11:45:21;96712.19;;;4.08;90.68
8061;BME280;4073;42.626;25.386;2023-01-31T11:47:52;96710.19;;;4.15;89.21
8061;BME280;4073;42.626;25.386;2023-01-31T11:50:33;96718.28;;;4.25;88.67
8061;BME280;4073;42.626;25.386;2023-01-31T11:53:04;96724.28;;;4.21;89.46
8061;BME280;4073;42.626;25.386;2023-01-31T11:55:38;96714.09;;;4.29;89.71
8061;BME280;4073;42.626;25.386;2023-01-31T11:58:14;96710.38;;;4.47;88.85
8061;BME280;4073;42.626;25.386;2023-01-31T12:00:52;96709.59;;;4.68;86.76
8061;BME280;4073;42.626;25.386;2023-01-31T12:03:18;96692.13;;;4.67;82.95
8061;BME280;4073;42.626;25.386;2023-01-31T12:05:49;96705.34;;;4.67;79.96
8061;BME280;4073;42.626;25.386;2023-01-31T12:08:36;96699.00;;;4.68;79.18
8061;BME280;4073;42.626;25.386;2023-01-31T12:13:46;96703.19;;;4.64;74.07
8061;BME280;4073;42.626;25.386;2023-01-31T12:16:12;96699.34;;;4.71;74.39
8061;BME280;4073;42.626;25.386;2023-01-31T12:24:10;96683.25;;;4.99;73.23
8061;BME280;4073;42.626;25.386;2023-01-31T12:26:48;96704.91;;;5.18;73.26
8061;BME280;4073;42.626;25.386;2023-01-31T12:43:19;96702.03;;;4.98;71.62
8061;BME280;4073;42.626;25.386;2023-01-31T13:04:29;96703.72;;;5.30;71.47
8061;BME280;4073;42.626;25.386;2023-01-31T13:07:02;96705.22;;;5.21;70.97
8061;BME280;4073;42.626;25.386;2023-01-31T13:09:35;96708.16;;;5.25;70.83
8061;BME280;4073;42.626;25.386;2023-01-31T13:14:33;96711.06;;;5.77;69.41
8061;BME280;4073;42.626;25.386;2023-01-31T13:17:03;96711.19;;;5.87;70.03
8061;BME280;4073;42.626;25.386;2023-01-31T13:19:51;96714.38;;;5.89;70.74
8061;BME280;4073;42.626;25.386;2023-01-31T13:22:26;96723.63;;;5.81;71.34
8061;BME280;4073;42.626;25.386;2023-01-31T13:25:13;96733.03;;;5.72;71.40
8061;BME280;4073;42.626;25.386;2023-01-31T13:27:43;96719.38;;;5.59;71.23
8061;BME280;4073;42.626;25.386;2023-01-31T13:32:48;96731.84;;;5.10;74.88
8061;BME280;4073;42.626;25.386;2023-01-31T13:37:50;96739.00;;;4.88;76.43
8061;BME280;4073;42.626;25.386;2023-01-31T13:40:20;96728.84;;;4.80;76.80
8061;BME280;4073;42.626;25.386;2023-01-31T13:42:48;96738.94;;;4.83;76.95
8061;BME280;4073;42.626;25.386;2023-01-31T13:45:44;96735.72;;;4.81;77.28
8061;BME280;4073;42.626;25.386;2023-01-31T13:48:26;96745.94;;;4.72;78.33
8061;BME280;4073;42.626;25.386;2023-01-31T13:50:58;96740.88;;;4.71;79.37
8061;BME280;4073;42.626;25.386;2023-01-31T13:53:29;96731.22;;;4.60;80.75
8061;BME280;4073;42.626;25.386;2023-01-31T13:55:57;96741.75;;;4.38;82.44
8061;BME280;4073;42.626;25.386;2023-01-31T13:58:28;96739.59;;;4.35;83.21
8061;BME280;4073;42.626;25.386;2023-01-31T14:01:06;96768.16;;;4.33;83.89
8061;BME280;4073;42.626;25.386;2023-01-31T14:09:25;96758.44;;;4.39;85.19
8061;BME280;4073;42.626;25.386;2023-01-31T14:11:54;96752.69;;;4.42;85.29
8061;BME280;4073;42.626;25.386;2023-01-31T14:17:02;96774.88;;;4.24;93.09
8061;BME280;4073;42.626;25.386;2023-01-31T14:22:18;96785.44;;;3.75;100.00
8061;BME280;4073;42.626;25.386;2023-01-31T14:27:45;96785.69;;;3.45;100.00
8061;BME280;4073;42.626;25.386;2023-01-31T14:30:35;96784.59;;;3.30;100.00
8061;BME280;4073;42.626;25.386;2023-01-31T14:33:12;96792.88;;;3.22;100.00
8061;BME280;4073;42.626;25.386;2023-01-31T14:36:33;96789.25;;;3.11;100.00
8061;BME280;4073;42.626;25.386;2023-01-31T14:39:12;96792.13;;;3.10;100.00
8061;BME280;4073;42.626;25.386;2023-01-31T14:52:55;96776.50;;;3.08;100.00
8061;BME280;4073;42.626;25.386;2023-01-31T14:55:40;96811.13;;;3.23;100.00
8061;BME280;4073;42.626;25.386;2023-01-31T14:58:20;96799.75;;;3.23;100.00
8061;BME280;4073;42.626;25.386;2023-01-31T15:00:49;96792.66;;;3.12;100.00
8061;BME280;4073;42.626;25.386;2023-01-31T15:03:23;96811.28;;;3.17;100.00
8061;BME280;4073;42.626;25.386;2023-01-31T15:05:52;96819.75;;;3.19;100.00
8061;BME280;4073;42.626;25.386;2023-01-31T15:11:05;96831.59;;;3.16;100.00
8061;BME280;4073;42.626;25.386;2023-01-31T15:13:56;96837.31;;;3.25;100.00
8061;BME280;4073;42.626;25.386;2023-01-31T15:16:33;96827.34;;;3.27;100.00
8061;BME280;4073;42.626;25.386;2023-01-31T15:19:18;96825.38;;;3.22;100.00
8061;BME280;4073;42.626;25.386;2023-01-31T15:21:48;96841.44;;;3.32;100.00
8061;BME280;4073;42.626;25.386;2023-01-31T15:27:00;96844.28;;;3.42;100.00
8061;BME280;4073;42.626;25.386;2023-01-31T15:32:46;96846.78;;;3.49;100.00
8061;BME280;4073;42.626;25.386;2023-01-31T15:35:22;96850.72;;;3.46;100.00
8061;BME280;4073;42.626;25.386;2023-01-31T15:37:55;96845.19;;;3.48;100.00
8061;BME280;4073;42.626;25.386;2023-01-31T15:40:27;96849.44;;;3.49;100.00
8061;BME280;4073;42.626;25.386;2023-01-31T15:42:53;96859.75;;;3.50;100.00
8061;BME280;4073;42.626;25.386;2023-01-31T15:45:27;96863.00;;;3.52;100.00
8061;BME280;4073;42.626;25.386;2023-01-31T15:50:30;96859.75;;;3.50;100.00
8061;BME280;4073;42.626;25.386;2023-01-31T15:53:01;96878.03;;;3.52;100.00
8061;BME280;4073;42.626;25.386;2023-01-31T15:55:28;96885.53;;;3.43;100.00
8061;BME280;4073;42.626;25.386;2023-01-31T15:57:55;96899.91;;;3.24;100.00
8061;BME280;4073;42.626;25.386;2023-01-31T16:00:30;96898.44;;;3.17;100.00
8061;BME280;4073;42.626;25.386;2023-01-31T16:02:57;96848.97;;;2.66;100.00